sensor_id;sensor_type;location;lat;lon;timestamp;P1;durP1;ratioP1;P2;durP2;ratioP2
78508;SDS011;67802;50.846;7.958;2023-04-03T00:00:44;1.83;;;0.90;;
78508;SDS011;67802;50.846;7.958;2023-04-03T00:03:10;1.75;;;0.80;;
78508;SDS011;67802;50.846;7.958;2023-04-03T00:05:35;2.75;;;0.90;;
78508;SDS011;67802;50.846;7.958;2023-04-03T00:08:01;2.13;;;0.90;;
78508;SDS011;67802;50.846;7.958;2023-04-03T00:10:27;3.17;;;0.80;;
78508;SDS011;67802;50.846;7.958;2023-04-03T00:12:52;2.13;;;0.90;;
78508;SDS011;67802;50.846;7.958;2023-04-03T00:15:18;3.45;;;0.98;;
78508;SDS011;67802;50.846;7.958;2023-04-03T00:17:43;1.10;;;0.70;;
78508;SDS011;67802;50.846;7.958;2023-04-03T00:20:09;1.77;;;0.80;;
78508;SDS011;67802;50.846;7.958;2023-04-03T00:22:34;1.27;;;0.73;;
78508;SDS011;67802;50.846;7.958;2023-04-03T00:25:00;1.70;;;0.75;;
78508;SDS011;67802;50.846;7.958;2023-04-03T00:27:25;2.30;;;1.00;;
78508;SDS011;67802;50.846;7.958;2023-04-03T00:29:50;2.85;;;1.00;;
78508;SDS011;67802;50.846;7.958;2023-04-03T00:32:16;2.65;;;1.00;;
78508;SDS011;67802;50.846;7.958;2023-04-03T00:34:41;1.95;;;0.80;;
78508;SDS011;67802;50.846;7.958;2023-04-03T00:37:06;2.30;;;0.90;;
78508;SDS011;67802;50.846;7.958;2023-04-03T00:39:32;2.03;;;0.75;;
78508;SDS011;67802;50.846;7.958;2023-04-03T00:41:57;2.53;;;1.00;;
78508;SDS011;67802;50.846;7.958;2023-04-03T00:47:00;3.50;;;1.15;;
78508;SDS011;67802;50.846;7.958;2023-04-03T00:49:28;1.40;;;0.68;;
78508;SDS011;67802;50.846;7.958;2023-04-03T00:51:54;2.60;;;0.93;;
78508;SDS011;67802;50.846;7.958;2023-04-03T00:54:21;2.15;;;0.93;;
78508;SDS011;67802;50.846;7.958;2023-04-03T00:56:47;2.33;;;0.90;;
78508;SDS011;67802;50.846;7.958;2023-04-03T00:59:18;1.42;;;0.75;;
78508;SDS011;67802;50.846;7.958;2023-04-03T01:04:35;1.55;;;0.73;;
78508;SDS011;67802;50.846;7.958;2023-04-03T01:07:03;1.63;;;0.85;;
78508;SDS011;67802;50.846;7.958;2023-04-03T01:09:35;1.80;;;0.80;;
78508;SDS011;67802;50.846;7.958;2023-04-03T01:14:46;1.83;;;0.93;;
78508;SDS011;67802;50.846;7.958;2023-04-03T01:25:55;1.95;;;1.00;;
78508;SDS011;67802;50.846;7.958;2023-04-03T01:28:26;1.70;;;0.80;;
78508;SDS011;67802;50.846;7.958;2023-04-03T01:33:47;1.65;;;0.77;;
78508;SDS011;67802;50.846;7.958;2023-04-03T01:36:15;2.92;;;0.95;;
78508;SDS011;67802;50.846;7.958;2023-04-03T01:38:45;2.42;;;1.00;;
78508;SDS011;67802;50.846;7.958;2023-04-03T01:41:11;1.15;;;0.65;;
78508;SDS011;67802;50.846;7.958;2023-04-03T01:43:36;1.55;;;0.73;;
78508;SDS011;67802;50.846;7.958;2023-04-03T01:46:02;2.38;;;1.00;;
78508;SDS011;67802;50.846;7.958;2023-04-03T01:48:27;2.42;;;1.00;;
78508;SDS011;67802;50.846;7.958;2023-04-03T01:50:53;2.17;;;0.80;;
78508;SDS011;67802;50.846;7.958;2023-04-03T01:53:19;2.35;;;0.95;;
78508;SDS011;67802;50.846;7.958;2023-04-03T01:55:44;1.95;;;0.85;;
78508;SDS011;67802;50.846;7.958;2023-04-03T01:58:10;1.40;;;0.90;;
78508;SDS011;67802;50.846;7.958;2023-04-03T02:00:35;1.67;;;0.70;;
78508;SDS011;67802;50.846;7.958;2023-04-03T02:03:01;2.00;;;0.80;;
78508;SDS011;67802;50.846;7.958;2023-04-03T02:05:26;0.85;;;0.63;;
78508;SDS011;67802;50.846;7.958;2023-04-03T02:07:52;2.70;;;1.00;;
78508;SDS011;67802;50.846;7.958;2023-04-03T02:10:17;2.38;;;0.93;;
78508;SDS011;67802;50.846;7.958;2023-04-03T02:12:42;2.08;;;0.80;;
78508;SDS011;67802;50.846;7.958;2023-04-03T02:15:08;2.30;;;0.80;;
78508;SDS011;67802;50.846;7.958;2023-04-03T02:17:34;1.52;;;0.70;;
78508;SDS011;67802;50.846;7.958;2023-04-03T02:20:00;2.47;;;0.90;;
78508;SDS011;67802;50.846;7.958;2023-04-03T02:22:25;2.08;;;0.75;;
78508;SDS011;67802;50.846;7.958;2023-04-03T02:24:51;2.78;;;0.80;;
78508;SDS011;67802;50.846;7.958;2023-04-03T02:27:16;2.42;;;0.90;;
78508;SDS011;67802;50.846;7.958;2023-04-03T02:29:42;2.75;;;1.20;;
78508;SDS011;67802;50.846;7.958;2023-04-03T02:32:07;1.60;;;0.73;;
78508;SDS011;67802;50.846;7.958;2023-04-03T02:34:32;2.20;;;0.80;;
78508;SDS011;67802;50.846;7.958;2023-04-03T02:36:58;2.85;;;1.10;;
78508;SDS011;67802;50.846;7.958;2023-04-03T02:39:23;1.65;;;0.80;;
78508;SDS011;67802;50.846;7.958;2023-04-03T02:41:48;1.80;;;0.80;;
78508;SDS011;67802;50.846;7.958;2023-04-03T02:44:14;2.25;;;1.00;;
78508;SDS011;67802;50.846;7.958;2023-04-03T02:46:39;1.27;;;0.73;;
78508;SDS011;67802;50.846;7.958;2023-04-03T02:49:05;1.92;;;0.82;;
78508;SDS011;67802;50.846;7.958;2023-04-03T02:51:30;2.42;;;0.70;;
78508;SDS011;67802;50.846;7.958;2023-04-03T02:53:56;1.45;;;0.82;;
78508;SDS011;67802;50.846;7.958;2023-04-03T02:56:21;1.90;;;0.80;;
78508;SDS011;67802;50.846;7.958;2023-04-03T02:58:47;2.78;;;1.00;;
78508;SDS011;67802;50.846;7.958;2023-04-03T03:01:12;2.05;;;0.77;;
78508;SDS011;67802;50.846;7.958;2023-04-03T03:03:38;2.35;;;0.82;;
78508;SDS011;67802;50.846;7.958;2023-04-03T03:06:08;1.73;;;0.77;;
78508;SDS011;67802;50.846;7.958;2023-04-03T03:08:38;2.50;;;0.95;;
78508;SDS011;67802;50.846;7.958;2023-04-03T03:11:03;2.50;;;0.80;;
78508;SDS011;67802;50.846;7.958;2023-04-03T03:13:30;1.88;;;0.80;;
78508;SDS011;67802;50.846;7.958;2023-04-03T03:15:55;2.53;;;0.80;;
78508;SDS011;67802;50.846;7.958;2023-04-03T03:18:21;2.20;;;0.80;;
78508;SDS011;67802;50.846;7.958;2023-04-03T03:20:46;1.48;;;0.70;;
78508;SDS011;67802;50.846;7.958;2023-04-03T03:23:16;2.78;;;0.90;;
78508;SDS011;67802;50.846;7.958;2023-04-03T03:25:41;1.17;;;0.52;;
78508;SDS011;67802;50.846;7.958;2023-04-03T03:28:06;2.00;;;0.80;;
78508;SDS011;67802;50.846;7.958;2023-04-03T03:30:32;2.28;;;0.80;;
78508;SDS011;67802;50.846;7.958;2023-04-03T03:32:58;2.83;;;0.90;;
78508;SDS011;67802;50.846;7.958;2023-04-03T03:35:23;1.98;;;0.80;;
78508;SDS011;67802;50.846;7.958;2023-04-03T03:37:48;2.72;;;0.70;;
78508;SDS011;67802;50.846;7.958;2023-04-03T03:40:14;1.65;;;0.70;;
78508;SDS011;67802;50.846;7.958;2023-04-03T03:42:39;2.00;;;0.70;;
78508;SDS011;67802;50.846;7.958;2023-04-03T03:45:05;1.52;;;0.70;;
78508;SDS011;67802;50.846;7.958;2023-04-03T03:47:31;1.52;;;0.65;;
78508;SDS011;67802;50.846;7.958;2023-04-03T03:49:56;2.28;;;0.73;;
78508;SDS011;67802;50.846;7.958;2023-04-03T03:52:21;1.55;;;0.77;;
78508;SDS011;67802;50.846;7.958;2023-04-03T03:54:47;3.17;;;1.00;;
78508;SDS011;67802;50.846;7.958;2023-04-03T03:57:12;1.75;;;0.80;;
78508;SDS011;67802;50.846;7.958;2023-04-03T03:59:37;1.73;;;0.77;;
78508;SDS011;67802;50.846;7.958;2023-04-03T04:02:05;2.28;;;0.88;;
78508;SDS011;67802;50.846;7.958;2023-04-03T04:04:30;1.75;;;0.68;;
78508;SDS011;67802;50.846;7.958;2023-04-03T04:06:55;2.53;;;0.80;;
78508;SDS011;67802;50.846;7.958;2023-04-03T04:09:21;2.05;;;0.70;;
78508;SDS011;67802;50.846;7.958;2023-04-03T04:11:46;1.38;;;0.85;;
78508;SDS011;67802;50.846;7.958;2023-04-03T04:14:12;2.00;;;0.63;;
78508;SDS011;67802;50.846;7.958;2023-04-03T04:16:38;1.77;;;0.80;;
78508;SDS011;67802;50.846;7.958;2023-04-03T04:19:03;2.38;;;0.80;;
78508;SDS011;67802;50.846;7.958;2023-04-03T04:21:29;2.80;;;0.80;;
78508;SDS011;67802;50.846;7.958;2023-04-03T04:23:54;2.25;;;0.80;;
78508;SDS011;67802;50.846;7.958;2023-04-03T04:26:19;1.23;;;0.73;;
78508;SDS011;67802;50.846;7.958;2023-04-03T04:28:46;1.58;;;0.70;;
78508;SDS011;67802;50.846;7.958;2023-04-03T04:31:11;2.70;;;0.98;;
78508;SDS011;67802;50.846;7.958;2023-04-03T04:33:36;2.70;;;0.90;;
78508;SDS011;67802;50.846;7.958;2023-04-03T04:36:02;4.13;;;1.30;;
78508;SDS011;67802;50.846;7.958;2023-04-03T04:38:27;0.88;;;0.77;;
78508;SDS011;67802;50.846;7.958;2023-04-03T04:40:53;3.00;;;1.13;;
78508;SDS011;67802;50.846;7.958;2023-04-03T04:43:18;2.35;;;0.95;;
78508;SDS011;67802;50.846;7.958;2023-04-03T04:45:43;3.40;;;1.10;;
78508;SDS011;67802;50.846;7.958;2023-04-03T04:48:09;2.97;;;0.80;;
78508;SDS011;67802;50.846;7.958;2023-04-03T04:50:34;1.75;;;0.80;;
78508;SDS011;67802;50.846;7.958;2023-04-03T04:53:00;2.53;;;0.93;;
78508;SDS011;67802;50.846;7.958;2023-04-03T04:55:25;2.00;;;0.90;;
78508;SDS011;67802;50.846;7.958;2023-04-03T04:57:50;2.78;;;0.80;;
78508;SDS011;67802;50.846;7.958;2023-04-03T05:00:16;2.50;;;0.80;;
78508;SDS011;67802;50.846;7.958;2023-04-03T05:02:43;1.75;;;0.82;;
78508;SDS011;67802;50.846;7.958;2023-04-03T05:05:08;2.20;;;0.90;;
78508;SDS011;67802;50.846;7.958;2023-04-03T05:07:34;2.60;;;0.90;;
78508;SDS011;67802;50.846;7.958;2023-04-03T05:10:00;2.20;;;0.90;;
78508;SDS011;67802;50.846;7.958;2023-04-03T05:12:26;1.38;;;0.80;;
78508;SDS011;67802;50.846;7.958;2023-04-03T05:14:51;1.92;;;0.80;;
78508;SDS011;67802;50.846;7.958;2023-04-03T05:17:16;3.00;;;1.00;;
78508;SDS011;67802;50.846;7.958;2023-04-03T05:19:42;1.98;;;0.88;;
78508;SDS011;67802;50.846;7.958;2023-04-03T05:22:07;1.75;;;0.80;;
78508;SDS011;67802;50.846;7.958;2023-04-03T05:24:32;2.17;;;1.02;;
78508;SDS011;67802;50.846;7.958;2023-04-03T05:26:58;4.03;;;1.00;;
78508;SDS011;67802;50.846;7.958;2023-04-03T05:29:23;3.70;;;1.10;;
78508;SDS011;67802;50.846;7.958;2023-04-03T05:31:49;3.78;;;1.10;;
78508;SDS011;67802;50.846;7.958;2023-04-03T05:34:15;3.08;;;0.98;;
78508;SDS011;67802;50.846;7.958;2023-04-03T05:36:40;3.30;;;1.05;;
78508;SDS011;67802;50.846;7.958;2023-04-03T05:39:06;2.15;;;0.90;;
78508;SDS011;67802;50.846;7.958;2023-04-03T05:41:31;2.25;;;0.90;;
78508;SDS011;67802;50.846;7.958;2023-04-03T05:43:57;3.30;;;0.90;;
78508;SDS011;67802;50.846;7.958;2023-04-03T05:46:22;2.38;;;0.80;;
78508;SDS011;67802;50.846;7.958;2023-04-03T05:48:47;2.67;;;0.95;;
78508;SDS011;67802;50.846;7.958;2023-04-03T05:51:14;1.95;;;0.90;;
78508;SDS011;67802;50.846;7.958;2023-04-03T05:53:42;0.90;;;0.70;;
78508;SDS011;67802;50.846;7.958;2023-04-03T05:56:09;1.58;;;0.70;;
78508;SDS011;67802;50.846;7.958;2023-04-03T05:58:34;2.13;;;0.90;;
78508;SDS011;67802;50.846;7.958;2023-04-03T06:00:59;1.55;;;0.90;;
78508;SDS011;67802;50.846;7.958;2023-04-03T06:03:25;2.92;;;0.90;;
78508;SDS011;67802;50.846;7.958;2023-04-03T06:05:51;2.97;;;0.80;;
78508;SDS011;67802;50.846;7.958;2023-04-03T06:08:16;2.30;;;0.85;;
78508;SDS011;67802;50.846;7.958;2023-04-03T06:10:41;2.05;;;0.82;;
78508;SDS011;67802;50.846;7.958;2023-04-03T06:13:07;2.25;;;0.95;;
78508;SDS011;67802;50.846;7.958;2023-04-03T06:15:33;3.05;;;1.02;;
78508;SDS011;67802;50.846;7.958;2023-04-03T06:17:58;2.03;;;0.85;;
78508;SDS011;67802;50.846;7.958;2023-04-03T06:20:24;2.85;;;1.10;;
78508;SDS011;67802;50.846;7.958;2023-04-03T06:22:49;2.33;;;0.90;;
78508;SDS011;67802;50.846;7.958;2023-04-03T06:25:16;3.55;;;1.08;;
78508;SDS011;67802;50.846;7.958;2023-04-03T06:27:43;2.47;;;0.93;;
78508;SDS011;67802;50.846;7.958;2023-04-03T06:30:09;2.92;;;1.02;;
78508;SDS011;67802;50.846;7.958;2023-04-03T06:32:35;2.95;;;1.00;;
78508;SDS011;67802;50.846;7.958;2023-04-03T06:35:01;3.15;;;1.05;;
78508;SDS011;67802;50.846;7.958;2023-04-03T06:37:26;2.13;;;1.00;;
78508;SDS011;67802;50.846;7.958;2023-04-03T06:39:53;2.70;;;0.93;;
78508;SDS011;67802;50.846;7.958;2023-04-03T06:42:19;2.00;;;0.88;;
78508;SDS011;67802;50.846;7.958;2023-04-03T06:44:45;2.47;;;0.90;;
78508;SDS011;67802;50.846;7.958;2023-04-03T06:47:11;2.72;;;0.88;;
78508;SDS011;67802;50.846;7.958;2023-04-03T06:49:38;2.25;;;0.80;;
78508;SDS011;67802;50.846;7.958;2023-04-03T06:52:04;3.50;;;1.20;;
78508;SDS011;67802;50.846;7.958;2023-04-03T06:54:30;2.35;;;0.80;;
78508;SDS011;67802;50.846;7.958;2023-04-03T06:56:56;3.17;;;1.00;;
78508;SDS011;67802;50.846;7.958;2023-04-03T06:59:21;2.28;;;0.80;;
78508;SDS011;67802;50.846;7.958;2023-04-03T07:01:47;1.75;;;0.80;;
78508;SDS011;67802;50.846;7.958;2023-04-03T07:04:12;2.53;;;0.90;;
78508;SDS011;67802;50.846;7.958;2023-04-03T07:06:37;1.80;;;0.80;;
78508;SDS011;67802;50.846;7.958;2023-04-03T07:09:03;3.38;;;0.90;;
78508;SDS011;67802;50.846;7.958;2023-04-03T07:11:28;2.60;;;0.90;;
78508;SDS011;67802;50.846;7.958;2023-04-03T07:13:53;2.33;;;0.73;;
78508;SDS011;67802;50.846;7.958;2023-04-03T07:16:19;2.85;;;0.93;;
78508;SDS011;67802;50.846;7.958;2023-04-03T07:18:46;2.13;;;0.90;;
78508;SDS011;67802;50.846;7.958;2023-04-03T07:21:11;4.18;;;1.00;;
78508;SDS011;67802;50.846;7.958;2023-04-03T07:23:37;2.55;;;0.88;;
78508;SDS011;67802;50.846;7.958;2023-04-03T07:26:03;4.40;;;1.17;;
78508;SDS011;67802;50.846;7.958;2023-04-03T07:28:29;2.90;;;1.00;;
78508;SDS011;67802;50.846;7.958;2023-04-03T07:31:05;2.30;;;0.88;;
78508;SDS011;67802;50.846;7.958;2023-04-03T07:33:33;4.50;;;1.23;;
78508;SDS011;67802;50.846;7.958;2023-04-03T07:36:00;2.80;;;0.85;;
78508;SDS011;67802;50.846;7.958;2023-04-03T07:38:25;3.35;;;1.20;;
78508;SDS011;67802;50.846;7.958;2023-04-03T07:40:51;1.50;;;0.75;;
78508;SDS011;67802;50.846;7.958;2023-04-03T07:43:18;2.05;;;0.82;;
78508;SDS011;67802;50.846;7.958;2023-04-03T07:45:45;2.35;;;0.90;;
78508;SDS011;67802;50.846;7.958;2023-04-03T07:48:12;2.78;;;0.80;;
78508;SDS011;67802;50.846;7.958;2023-04-03T07:50:40;3.47;;;0.93;;
78508;SDS011;67802;50.846;7.958;2023-04-03T07:53:05;2.75;;;1.05;;
78508;SDS011;67802;50.846;7.958;2023-04-03T07:55:31;2.35;;;0.90;;
78508;SDS011;67802;50.846;7.958;2023-04-03T07:57:56;2.28;;;1.00;;
78508;SDS011;67802;50.846;7.958;2023-04-03T08:00:22;4.95;;;1.08;;
78508;SDS011;67802;50.846;7.958;2023-04-03T08:02:48;1.80;;;0.73;;
78508;SDS011;67802;50.846;7.958;2023-04-03T08:05:16;3.42;;;0.95;;
78508;SDS011;67802;50.846;7.958;2023-04-03T08:07:42;2.88;;;1.00;;
78508;SDS011;67802;50.846;7.958;2023-04-03T08:10:07;2.92;;;0.98;;
78508;SDS011;67802;50.846;7.958;2023-04-03T08:12:33;2.10;;;0.82;;
78508;SDS011;67802;50.846;7.958;2023-04-03T08:15:00;2.20;;;0.88;;
78508;SDS011;67802;50.846;7.958;2023-04-03T08:17:26;2.13;;;0.80;;
78508;SDS011;67802;50.846;7.958;2023-04-03T08:19:52;4.90;;;1.10;;
78508;SDS011;67802;50.846;7.958;2023-04-03T08:22:17;3.65;;;0.90;;
78508;SDS011;67802;50.846;7.958;2023-04-03T08:24:42;2.50;;;0.90;;
78508;SDS011;67802;50.846;7.958;2023-04-03T08:27:08;2.78;;;1.00;;
78508;SDS011;67802;50.846;7.958;2023-04-03T08:29:33;3.25;;;1.05;;
78508;SDS011;67802;50.846;7.958;2023-04-03T08:31:58;4.28;;;1.25;;
78508;SDS011;67802;50.846;7.958;2023-04-03T08:34:23;3.15;;;0.93;;
78508;SDS011;67802;50.846;7.958;2023-04-03T08:36:49;4.07;;;0.90;;
78508;SDS011;67802;50.846;7.958;2023-04-03T08:39:14;3.03;;;1.10;;
78508;SDS011;67802;50.846;7.958;2023-04-03T08:41:44;3.30;;;1.00;;
78508;SDS011;67802;50.846;7.958;2023-04-03T08:49:56;3.70;;;1.00;;
78508;SDS011;67802;50.846;7.958;2023-04-03T08:52:41;1.60;;;0.77;;
78508;SDS011;67802;50.846;7.958;2023-04-03T08:58:03;3.40;;;1.05;;
78508;SDS011;67802;50.846;7.958;2023-04-03T09:00:47;2.15;;;0.75;;
78508;SDS011;67802;50.846;7.958;2023-04-03T09:03:14;1.90;;;0.90;;
78508;SDS011;67802;50.846;7.958;2023-04-03T09:05:45;2.45;;;0.85;;
78508;SDS011;67802;50.846;7.958;2023-04-03T09:08:23;1.70;;;0.60;;
78508;SDS011;67802;50.846;7.958;2023-04-03T09:10:54;3.72;;;1.20;;
78508;SDS011;67802;50.846;7.958;2023-04-03T09:19:14;2.28;;;0.93;;
78508;SDS011;67802;50.846;7.958;2023-04-03T09:21:46;3.17;;;1.00;;
78508;SDS011;67802;50.846;7.958;2023-04-03T09:24:13;1.75;;;0.77;;
78508;SDS011;67802;50.846;7.958;2023-04-03T09:26:58;2.47;;;0.90;;
78508;SDS011;67802;50.846;7.958;2023-04-03T09:29:28;2.03;;;0.80;;
78508;SDS011;67802;50.846;7.958;2023-04-03T09:31:56;2.78;;;1.05;;
78508;SDS011;67802;50.846;7.958;2023-04-03T09:34:28;3.83;;;0.95;;
78508;SDS011;67802;50.846;7.958;2023-04-03T09:36:57;3.30;;;0.98;;
78508;SDS011;67802;50.846;7.958;2023-04-03T09:39:48;4.70;;;1.00;;
78508;SDS011;67802;50.846;7.958;2023-04-03T09:42:23;3.20;;;1.10;;
78508;SDS011;67802;50.846;7.958;2023-04-03T09:44:56;2.55;;;0.90;;
78508;SDS011;67802;50.846;7.958;2023-04-03T09:47:56;3.03;;;0.90;;
78508;SDS011;67802;50.846;7.958;2023-04-03T09:50:28;2.67;;;0.98;;
78508;SDS011;67802;50.846;7.958;2023-04-03T09:52:54;2.33;;;1.13;;
78508;SDS011;67802;50.846;7.958;2023-04-03T09:55:23;3.17;;;1.17;;
78508;SDS011;67802;50.846;7.958;2023-04-03T09:57:53;10.30;;;2.22;;
78508;SDS011;67802;50.846;7.958;2023-04-03T10:00:23;22.52;;;3.03;;
78508;SDS011;67802;50.846;7.958;2023-04-03T10:02:50;13.55;;;2.45;;
78508;SDS011;67802;50.846;7.958;2023-04-03T10:08:09;11.88;;;2.17;;
78508;SDS011;67802;50.846;7.958;2023-04-03T10:10:38;15.93;;;2.55;;
78508;SDS011;67802;50.846;7.958;2023-04-03T10:13:09;12.35;;;2.20;;
78508;SDS011;67802;50.846;7.958;2023-04-03T10:15:44;8.88;;;1.63;;
78508;SDS011;67802;50.846;7.958;2023-04-03T10:18:32;10.55;;;1.70;;
78508;SDS011;67802;50.846;7.958;2023-04-03T10:21:27;7.55;;;1.60;;
78508;SDS011;67802;50.846;7.958;2023-04-03T10:23:55;6.68;;;1.52;;
78508;SDS011;67802;50.846;7.958;2023-04-03T10:29:51;6.10;;;1.35;;
78508;SDS011;67802;50.846;7.958;2023-04-03T10:40:57;6.60;;;1.67;;
78508;SDS011;67802;50.846;7.958;2023-04-03T10:46:08;4.20;;;1.30;;
78508;SDS011;67802;50.846;7.958;2023-04-03T10:49:05;2.83;;;0.85;;
78508;SDS011;67802;50.846;7.958;2023-04-03T10:57:11;2.28;;;0.85;;
78508;SDS011;67802;50.846;7.958;2023-04-03T10:59:47;5.03;;;0.90;;
78508;SDS011;67802;50.846;7.958;2023-04-03T11:02:24;3.75;;;0.90;;
78508;SDS011;67802;50.846;7.958;2023-04-03T11:04:55;4.70;;;1.00;;
78508;SDS011;67802;50.846;7.958;2023-04-03T11:07:28;4.88;;;0.90;;
78508;SDS011;67802;50.846;7.958;2023-04-03T11:10:00;2.67;;;0.90;;
78508;SDS011;67802;50.846;7.958;2023-04-03T11:12:36;4.13;;;1.00;;
78508;SDS011;67802;50.846;7.958;2023-04-03T11:15:11;4.05;;;1.05;;
78508;SDS011;67802;50.846;7.958;2023-04-03T11:17:41;3.75;;;1.00;;
78508;SDS011;67802;50.846;7.958;2023-04-03T11:20:30;3.78;;;0.93;;
78508;SDS011;67802;50.846;7.958;2023-04-03T11:25:49;3.28;;;0.80;;
78508;SDS011;67802;50.846;7.958;2023-04-03T11:28:18;2.13;;;0.80;;
78508;SDS011;67802;50.846;7.958;2023-04-03T11:36:24;2.50;;;0.90;;
78508;SDS011;67802;50.846;7.958;2023-04-03T11:38:52;2.75;;;0.90;;
78508;SDS011;67802;50.846;7.958;2023-04-03T11:41:25;2.47;;;1.00;;
78508;SDS011;67802;50.846;7.958;2023-04-03T11:44:00;3.67;;;1.00;;
78508;SDS011;67802;50.846;7.958;2023-04-03T11:46:48;2.78;;;1.00;;
78508;SDS011;67802;50.846;7.958;2023-04-03T11:55:35;2.03;;;0.75;;
78508;SDS011;67802;50.846;7.958;2023-04-03T12:05:52;3.08;;;1.02;;
78508;SDS011;67802;50.846;7.958;2023-04-03T12:08:27;2.00;;;0.90;;
78508;SDS011;67802;50.846;7.958;2023-04-03T12:16:06;2.70;;;0.90;;
78508;SDS011;67802;50.846;7.958;2023-04-03T12:21:15;3.47;;;0.80;;
78508;SDS011;67802;50.846;7.958;2023-04-03T12:29:25;2.55;;;0.85;;
78508;SDS011;67802;50.846;7.958;2023-04-03T12:34:39;3.05;;;0.85;;
78508;SDS011;67802;50.846;7.958;2023-04-03T12:48:46;2.28;;;0.90;;
78508;SDS011;67802;50.846;7.958;2023-04-03T12:54:04;2.97;;;1.10;;
78508;SDS011;67802;50.846;7.958;2023-04-03T12:56:46;2.83;;;0.93;;
78508;SDS011;67802;50.846;7.958;2023-04-03T12:59:33;2.67;;;0.90;;
78508;SDS011;67802;50.846;7.958;2023-04-03T13:01:58;1.30;;;0.65;;
78508;SDS011;67802;50.846;7.958;2023-04-03T13:04:26;2.55;;;0.82;;
78508;SDS011;67802;50.846;7.958;2023-04-03T13:06:52;2.63;;;0.80;;
78508;SDS011;67802;50.846;7.958;2023-04-03T13:09:27;2.05;;;1.00;;
78508;SDS011;67802;50.846;7.958;2023-04-03T13:11:59;2.10;;;0.80;;
78508;SDS011;67802;50.846;7.958;2023-04-03T13:14:28;2.70;;;1.00;;
78508;SDS011;67802;50.846;7.958;2023-04-03T13:17:12;4.93;;;1.02;;
78508;SDS011;67802;50.846;7.958;2023-04-03T13:19:39;4.75;;;1.10;;
78508;SDS011;67802;50.846;7.958;2023-04-03T13:22:08;2.15;;;0.73;;
78508;SDS011;67802;50.846;7.958;2023-04-03T13:24:49;4.60;;;1.02;;
78508;SDS011;67802;50.846;7.958;2023-04-03T13:27:16;6.28;;;1.10;;
78508;SDS011;67802;50.846;7.958;2023-04-03T13:29:43;2.03;;;0.95;;
78508;SDS011;67802;50.846;7.958;2023-04-03T13:32:17;3.33;;;1.02;;
78508;SDS011;67802;50.846;7.958;2023-04-03T13:34:45;2.28;;;0.90;;
78508;SDS011;67802;50.846;7.958;2023-04-03T13:37:21;3.67;;;1.15;;
78508;SDS011;67802;50.846;7.958;2023-04-03T13:42:36;3.28;;;1.10;;
78508;SDS011;67802;50.846;7.958;2023-04-03T13:45:27;4.53;;;1.05;;
78508;SDS011;67802;50.846;7.958;2023-04-03T13:48:06;2.75;;;1.13;;
78508;SDS011;67802;50.846;7.958;2023-04-03T13:50:54;3.22;;;0.90;;
78508;SDS011;67802;50.846;7.958;2023-04-03T13:58:34;1.88;;;0.70;;
78508;SDS011;67802;50.846;7.958;2023-04-03T14:03:45;3.45;;;1.00;;
78508;SDS011;67802;50.846;7.958;2023-04-03T14:06:22;3.28;;;0.90;;
78508;SDS011;67802;50.846;7.958;2023-04-03T14:08:48;2.60;;;1.08;;
78508;SDS011;67802;50.846;7.958;2023-04-03T14:11:24;2.55;;;0.90;;
78508;SDS011;67802;50.846;7.958;2023-04-03T14:13:53;3.00;;;0.80;;
78508;SDS011;67802;50.846;7.958;2023-04-03T14:16:23;2.85;;;0.80;;
78508;SDS011;67802;50.846;7.958;2023-04-03T14:18:52;2.47;;;1.00;;
78508;SDS011;67802;50.846;7.958;2023-04-03T14:21:18;3.38;;;1.00;;
78508;SDS011;67802;50.846;7.958;2023-04-03T14:23:45;2.10;;;0.80;;
78508;SDS011;67802;50.846;7.958;2023-04-03T14:26:18;2.40;;;0.90;;
78508;SDS011;67802;50.846;7.958;2023-04-03T14:28:46;2.92;;;0.98;;
78508;SDS011;67802;50.846;7.958;2023-04-03T14:31:14;2.38;;;1.00;;
78508;SDS011;67802;50.846;7.958;2023-04-03T18:40:08;3.50;;;1.10;;
78508;SDS011;67802;50.846;7.958;2023-04-03T18:42:34;3.72;;;1.00;;
78508;SDS011;67802;50.846;7.958;2023-04-03T18:45:00;3.33;;;0.90;;
78508;SDS011;67802;50.846;7.958;2023-04-03T18:47:28;3.20;;;1.08;;
78508;SDS011;67802;50.846;7.958;2023-04-03T18:49:55;3.47;;;1.20;;
78508;SDS011;67802;50.846;7.958;2023-04-03T18:52:21;3.20;;;1.00;;
78508;SDS011;67802;50.846;7.958;2023-04-03T18:54:49;3.17;;;1.10;;
78508;SDS011;67802;50.846;7.958;2023-04-03T18:57:14;3.25;;;1.17;;
78508;SDS011;67802;50.846;7.958;2023-04-03T18:59:40;2.38;;;1.00;;
78508;SDS011;67802;50.846;7.958;2023-04-03T19:02:06;5.07;;;1.17;;
78508;SDS011;67802;50.846;7.958;2023-04-03T19:04:32;2.58;;;1.00;;
78508;SDS011;67802;50.846;7.958;2023-04-03T19:06:58;3.78;;;1.02;;
78508;SDS011;67802;50.846;7.958;2023-04-03T19:09:28;2.78;;;1.05;;
78508;SDS011;67802;50.846;7.958;2023-04-03T19:11:53;2.63;;;1.00;;
78508;SDS011;67802;50.846;7.958;2023-04-03T19:14:19;2.60;;;0.90;;
78508;SDS011;67802;50.846;7.958;2023-04-03T19:16:44;3.67;;;1.23;;
78508;SDS011;67802;50.846;7.958;2023-04-03T19:19:09;3.05;;;1.00;;
78508;SDS011;67802;50.846;7.958;2023-04-03T19:21:35;2.75;;;1.02;;
78508;SDS011;67802;50.846;7.958;2023-04-03T19:24:05;2.92;;;1.00;;
78508;SDS011;67802;50.846;7.958;2023-04-03T19:26:31;4.40;;;1.00;;
78508;SDS011;67802;50.846;7.958;2023-04-03T19:28:56;3.50;;;1.30;;
78508;SDS011;67802;50.846;7.958;2023-04-03T19:31:22;2.63;;;1.00;;
78508;SDS011;67802;50.846;7.958;2023-04-03T19:33:47;3.38;;;1.05;;
78508;SDS011;67802;50.846;7.958;2023-04-03T19:36:13;3.08;;;1.00;;
78508;SDS011;67802;50.846;7.958;2023-04-03T19:38:39;3.05;;;1.13;;
78508;SDS011;67802;50.846;7.958;2023-04-03T19:41:15;2.72;;;1.00;;
78508;SDS011;67802;50.846;7.958;2023-04-03T19:43:42;1.90;;;0.90;;
78508;SDS011;67802;50.846;7.958;2023-04-03T19:46:08;2.25;;;0.90;;
78508;SDS011;67802;50.846;7.958;2023-04-03T19:48:34;3.60;;;1.13;;
78508;SDS011;67802;50.846;7.958;2023-04-03T19:50:59;2.70;;;1.00;;
78508;SDS011;67802;50.846;7.958;2023-04-03T19:53:25;3.60;;;1.20;;
78508;SDS011;67802;50.846;7.958;2023-04-03T19:55:53;2.15;;;0.95;;
78508;SDS011;67802;50.846;7.958;2023-04-03T19:58:20;1.90;;;0.80;;
78508;SDS011;67802;50.846;7.958;2023-04-03T20:00:46;2.33;;;1.00;;
78508;SDS011;67802;50.846;7.958;2023-04-03T20:03:12;2.45;;;0.90;;
78508;SDS011;67802;50.846;7.958;2023-04-03T20:05:37;2.95;;;1.00;;
78508;SDS011;67802;50.846;7.958;2023-04-03T20:08:02;3.42;;;1.20;;
78508;SDS011;67802;50.846;7.958;2023-04-03T20:10:28;3.60;;;1.05;;
78508;SDS011;67802;50.846;7.958;2023-04-03T20:12:54;1.58;;;0.85;;
78508;SDS011;67802;50.846;7.958;2023-04-03T20:15:19;2.50;;;1.10;;
78508;SDS011;67802;50.846;7.958;2023-04-03T20:17:45;2.45;;;0.90;;
78508;SDS011;67802;50.846;7.958;2023-04-03T20:20:10;3.45;;;1.00;;
78508;SDS011;67802;50.846;7.958;2023-04-03T20:22:37;2.42;;;1.10;;
78508;SDS011;67802;50.846;7.958;2023-04-03T20:25:03;2.67;;;1.00;;
78508;SDS011;67802;50.846;7.958;2023-04-03T20:27:30;1.85;;;0.85;;
78508;SDS011;67802;50.846;7.958;2023-04-03T20:29:56;2.53;;;0.90;;
78508;SDS011;67802;50.846;7.958;2023-04-03T20:32:21;2.38;;;0.90;;
78508;SDS011;67802;50.846;7.958;2023-04-03T20:34:47;2.33;;;1.00;;
78508;SDS011;67802;50.846;7.958;2023-04-03T20:37:13;2.80;;;1.00;;
78508;SDS011;67802;50.846;7.958;2023-04-03T20:39:43;2.50;;;1.00;;
78508;SDS011;67802;50.846;7.958;2023-04-03T20:42:09;5.88;;;1.00;;
78508;SDS011;67802;50.846;7.958;2023-04-03T20:44:34;2.72;;;0.90;;
78508;SDS011;67802;50.846;7.958;2023-04-03T20:47:00;3.78;;;1.20;;
78508;SDS011;67802;50.846;7.958;2023-04-03T20:49:26;2.13;;;0.90;;
78508;SDS011;67802;50.846;7.958;2023-04-03T20:51:51;4.30;;;1.00;;
78508;SDS011;67802;50.846;7.958;2023-04-03T20:54:17;3.00;;;1.15;;
78508;SDS011;67802;50.846;7.958;2023-04-03T20:56:42;2.42;;;0.95;;
78508;SDS011;67802;50.846;7.958;2023-04-03T20:59:08;2.78;;;0.95;;